sensor_id;sensor_type;location;lat;lon;timestamp;temperature;humidity
18047;DHT22;9148;51.454;13.862;2023-04-28T00:01:18;4.60;99.90
18047;DHT22;9148;51.454;13.862;2023-04-28T00:03:44;5.30;99.90
18047;DHT22;9148;51.454;13.862;2023-04-28T00:06:09;4.60;99.90
18047;DHT22;9148;51.454;13.862;2023-04-28T00:08:36;4.60;99.90
18047;DHT22;9148;51.454;13.862;2023-04-28T00:11:02;4.60;99.90
18047;DHT22;9148;51.454;13.862;2023-04-28T00:13:27;4.80;99.90
18047;DHT22;9148;51.454;13.862;2023-04-28T00:15:53;4.60;99.90
18047;DHT22;9148;51.454;13.862;2023-04-28T00:18:20;4.60;99.90
18047;DHT22;9148;51.454;13.862;2023-04-28T00:20:46;4.60;99.90
18047;DHT22;9148;51.454;13.862;2023-04-28T00:23:12;4.70;99.90
18047;DHT22;9148;51.454;13.862;2023-04-28T00:25:37;4.60;99.90
18047;DHT22;9148;51.454;13.862;2023-04-28T00:28:09;4.60;99.90
18047;DHT22;9148;51.454;13.862;2023-04-28T00:30:34;4.60;99.90
18047;DHT22;9148;51.454;13.862;2023-04-28T00:33:00;4.60;99.90
18047;DHT22;9148;51.454;13.862;2023-04-28T00:35:26;4.60;99.90
18047;DHT22;9148;51.454;13.862;2023-04-28T00:37:51;4.60;99.90
18047;DHT22;9148;51.454;13.862;2023-04-28T00:40:17;5.20;99.90
18047;DHT22;9148;51.454;13.862;2023-04-28T00:42:46;4.70;99.90
18047;DHT22;9148;51.454;13.862;2023-04-28T00:45:11;4.70;99.90
18047;DHT22;9148;51.454;13.862;2023-04-28T00:47:37;4.80;99.90
18047;DHT22;9148;51.454;13.862;2023-04-28T00:50:04;5.40;99.90
18047;DHT22;9148;51.454;13.862;2023-04-28T00:52:30;4.80;99.90
18047;DHT22;9148;51.454;13.862;2023-04-28T00:54:57;4.80;99.90
18047;DHT22;9148;51.454;13.862;2023-04-28T00:57:22;4.80;99.90
18047;DHT22;9148;51.454;13.862;2023-04-28T00:59:48;4.80;99.90
18047;DHT22;9148;51.454;13.862;2023-04-28T01:02:14;4.80;99.90
18047;DHT22;9148;51.454;13.862;2023-04-28T01:04:44;5.30;99.90
18047;DHT22;9148;51.454;13.862;2023-04-28T01:07:10;4.80;99.90
18047;DHT22;9148;51.454;13.862;2023-04-28T01:09:36;4.80;99.90
18047;DHT22;9148;51.454;13.862;2023-04-28T01:12:02;5.10;99.90
18047;DHT22;9148;51.454;13.862;2023-04-28T01:14:28;4.80;99.90
18047;DHT22;9148;51.454;13.862;2023-04-28T01:16:53;4.70;99.90
18047;DHT22;9148;51.454;13.862;2023-04-28T01:19:21;4.70;99.90
18047;DHT22;9148;51.454;13.862;2023-04-28T01:21:50;5.00;99.90
18047;DHT22;9148;51.454;13.862;2023-04-28T01:24:17;4.80;99.90
18047;DHT22;9148;51.454;13.862;2023-04-28T01:26:42;4.80;99.90
18047;DHT22;9148;51.454;13.862;2023-04-28T01:29:09;4.90;99.90
18047;DHT22;9148;51.454;13.862;2023-04-28T01:31:34;4.90;99.90
18047;DHT22;9148;51.454;13.862;2023-04-28T01:34:00;4.80;99.90
18047;DHT22;9148;51.454;13.862;2023-04-28T01:36:25;4.80;99.90
18047;DHT22;9148;51.454;13.862;2023-04-28T01:38:53;4.90;99.90
18047;DHT22;9148;51.454;13.862;2023-04-28T01:41:19;4.90;99.90
18047;DHT22;9148;51.454;13.862;2023-04-28T01:43:45;4.90;99.90
18047;DHT22;9148;51.454;13.862;2023-04-28T01:46:10;4.90;99.90
18047;DHT22;9148;51.454;13.862;2023-04-28T01:48:36;4.90;99.90
18047;DHT22;9148;51.454;13.862;2023-04-28T01:51:02;4.90;99.90
18047;DHT22;9148;51.454;13.862;2023-04-28T01:53:27;4.90;99.90
18047;DHT22;9148;51.454;13.862;2023-04-28T01:55:53;4.90;99.90
18047;DHT22;9148;51.454;13.862;2023-04-28T01:58:19;5.30;99.90
18047;DHT22;9148;51.454;13.862;2023-04-28T02:00:45;4.90;99.90
18047;DHT22;9148;51.454;13.862;2023-04-28T02:03:11;4.90;99.90
18047;DHT22;9148;51.454;13.862;2023-04-28T02:05:37;4.90;99.90
18047;DHT22;9148;51.454;13.862;2023-04-28T02:08:03;4.90;99.90
18047;DHT22;9148;51.454;13.862;2023-04-28T02:10:29;4.80;99.90
18047;DHT22;9148;51.454;13.862;2023-04-28T02:12:54;5.10;99.90
18047;DHT22;9148;51.454;13.862;2023-04-28T02:15:20;4.80;99.90
18047;DHT22;9148;51.454;13.862;2023-04-28T02:17:46;4.80;99.90
18047;DHT22;9148;51.454;13.862;2023-04-28T02:20:12;4.80;99.90
18047;DHT22;9148;51.454;13.862;2023-04-28T02:22:39;4.80;99.90
18047;DHT22;9148;51.454;13.862;2023-04-28T02:25:06;4.70;99.90
18047;DHT22;9148;51.454;13.862;2023-04-28T02:27:34;4.70;99.90
18047;DHT22;9148;51.454;13.862;2023-04-28T02:30:02;4.70;99.90
18047;DHT22;9148;51.454;13.862;2023-04-28T02:32:28;4.70;99.90
18047;DHT22;9148;51.454;13.862;2023-04-28T02:34:54;5.30;99.90
18047;DHT22;9148;51.454;13.862;2023-04-28T02:37:20;4.60;99.90
18047;DHT22;9148;51.454;13.862;2023-04-28T02:39:46;4.60;99.90
18047;DHT22;9148;51.454;13.862;2023-04-28T02:42:12;4.50;99.90
18047;DHT22;9148;51.454;13.862;2023-04-28T02:44:38;4.50;99.90
18047;DHT22;9148;51.454;13.862;2023-04-28T02:47:03;4.50;99.90
18047;DHT22;9148;51.454;13.862;2023-04-28T02:49:29;4.60;99.90
18047;DHT22;9148;51.454;13.862;2023-04-28T02:51:55;4.60;99.90
18047;DHT22;9148;51.454;13.862;2023-04-28T02:54:20;4.60;99.90
18047;DHT22;9148;51.454;13.862;2023-04-28T02:56:52;4.60;99.90
18047;DHT22;9148;51.454;13.862;2023-04-28T02:59:19;4.60;99.90
18047;DHT22;9148;51.454;13.862;2023-04-28T03:01:45;4.60;99.90
18047;DHT22;9148;51.454;13.862;2023-04-28T03:04:12;4.60;99.90
18047;DHT22;9148;51.454;13.862;2023-04-28T03:06:38;4.60;99.90
18047;DHT22;9148;51.454;13.862;2023-04-28T03:09:04;5.00;99.90
18047;DHT22;9148;51.454;13.862;2023-04-28T03:11:29;4.70;99.90
18047;DHT22;9148;51.454;13.862;2023-04-28T03:13:55;4.70;99.90
18047;DHT22;9148;51.454;13.862;2023-04-28T03:16:21;4.90;99.90
18047;DHT22;9148;51.454;13.862;2023-04-28T03:18:46;4.70;99.90
18047;DHT22;9148;51.454;13.862;2023-04-28T03:21:12;4.80;99.90
18047;DHT22;9148;51.454;13.862;2023-04-28T03:23:37;4.80;99.90
18047;DHT22;9148;51.454;13.862;2023-04-28T03:26:03;4.80;99.90
18047;DHT22;9148;51.454;13.862;2023-04-28T03:28:29;4.80;99.90
18047;DHT22;9148;51.454;13.862;2023-04-28T03:30:55;4.90;99.90
18047;DHT22;9148;51.454;13.862;2023-04-28T03:33:20;4.90;99.90
18047;DHT22;9148;51.454;13.862;2023-04-28T03:35:46;5.60;99.90
18047;DHT22;9148;51.454;13.862;2023-04-28T03:38:12;5.00;99.90
18047;DHT22;9148;51.454;13.862;2023-04-28T03:40:37;5.00;99.90
18047;DHT22;9148;51.454;13.862;2023-04-28T03:43:03;5.10;99.90
18047;DHT22;9148;51.454;13.862;2023-04-28T03:45:29;5.10;99.90
18047;DHT22;9148;51.454;13.862;2023-04-28T03:47:55;5.10;99.90
18047;DHT22;9148;51.454;13.862;2023-04-28T03:50:21;5.20;99.90
18047;DHT22;9148;51.454;13.862;2023-04-28T03:52:46;5.20;99.90
18047;DHT22;9148;51.454;13.862;2023-04-28T03:55:12;5.80;99.90
18047;DHT22;9148;51.454;13.862;2023-04-28T03:57:38;5.30;99.90
18047;DHT22;9148;51.454;13.862;2023-04-28T04:00:04;5.40;99.90
18047;DHT22;9148;51.454;13.862;2023-04-28T04:02:30;5.30;99.90
18047;DHT22;9148;51.454;13.862;2023-04-28T04:04:55;5.70;99.90
18047;DHT22;9148;51.454;13.862;2023-04-28T04:07:21;5.40;99.90
18047;DHT22;9148;51.454;13.862;2023-04-28T04:09:47;5.50;99.90
18047;DHT22;9148;51.454;13.862;2023-04-28T04:12:13;5.60;99.90
18047;DHT22;9148;51.454;13.862;2023-04-28T04:14:39;5.50;99.90
18047;DHT22;9148;51.454;13.862;2023-04-28T04:17:05;5.50;99.90
18047;DHT22;9148;51.454;13.862;2023-04-28T04:19:30;5.50;99.90
18047;DHT22;9148;51.454;13.862;2023-04-28T04:21:56;5.60;99.90
18047;DHT22;9148;51.454;13.862;2023-04-28T04:24:22;5.60;99.90
18047;DHT22;9148;51.454;13.862;2023-04-28T04:26:47;5.60;99.90
18047;DHT22;9148;51.454;13.862;2023-04-28T04:29:13;5.70;99.90
18047;DHT22;9148;51.454;13.862;2023-04-28T04:31:39;5.70;99.90
18047;DHT22;9148;51.454;13.862;2023-04-28T04:34:05;5.70;99.90
18047;DHT22;9148;51.454;13.862;2023-04-28T04:36:31;6.20;99.90
18047;DHT22;9148;51.454;13.862;2023-04-28T04:38:57;5.80;99.90
18047;DHT22;9148;51.454;13.862;2023-04-28T04:41:24;6.00;99.90
18047;DHT22;9148;51.454;13.862;2023-04-28T04:43:50;5.90;99.90
18047;DHT22;9148;51.454;13.862;2023-04-28T04:46:16;6.00;99.90
18047;DHT22;9148;51.454;13.862;2023-04-28T04:48:41;6.40;99.90
18047;DHT22;9148;51.454;13.862;2023-04-28T04:51:07;6.00;99.90
18047;DHT22;9148;51.454;13.862;2023-04-28T04:53:33;6.30;99.90
18047;DHT22;9148;51.454;13.862;2023-04-28T04:55:59;6.10;99.90
18047;DHT22;9148;51.454;13.862;2023-04-28T04:58:25;6.50;99.90
18047;DHT22;9148;51.454;13.862;2023-04-28T05:00:51;6.20;99.90
18047;DHT22;9148;51.454;13.862;2023-04-28T05:03:16;6.20;99.90
18047;DHT22;9148;51.454;13.862;2023-04-28T05:05:42;6.50;99.90
18047;DHT22;9148;51.454;13.862;2023-04-28T05:08:10;6.70;99.90
18047;DHT22;9148;51.454;13.862;2023-04-28T05:10:36;6.30;99.90
18047;DHT22;9148;51.454;13.862;2023-04-28T05:13:02;6.90;99.90
18047;DHT22;9148;51.454;13.862;2023-04-28T05:15:28;6.40;99.90
18047;DHT22;9148;51.454;13.862;2023-04-28T05:17:54;7.10;99.90
18047;DHT22;9148;51.454;13.862;2023-04-28T05:20:20;6.80;99.90
18047;DHT22;9148;51.454;13.862;2023-04-28T05:22:46;6.70;99.90
18047;DHT22;9148;51.454;13.862;2023-04-28T05:25:11;6.80;99.90
18047;DHT22;9148;51.454;13.862;2023-04-28T05:27:37;6.90;99.90
18047;DHT22;9148;51.454;13.862;2023-04-28T05:30:07;7.30;99.90
18047;DHT22;9148;51.454;13.862;2023-04-28T05:32:34;7.10;99.90
18047;DHT22;9148;51.454;13.862;2023-04-28T05:35:00;7.60;99.90
18047;DHT22;9148;51.454;13.862;2023-04-28T05:37:26;7.30;99.90
18047;DHT22;9148;51.454;13.862;2023-04-28T05:39:51;7.90;99.90
18047;DHT22;9148;51.454;13.862;2023-04-28T05:42:29;7.60;99.90
18047;DHT22;9148;51.454;13.862;2023-04-28T05:44:55;7.60;99.90
18047;DHT22;9148;51.454;13.862;2023-04-28T05:47:21;7.70;99.90
18047;DHT22;9148;51.454;13.862;2023-04-28T05:49:46;7.80;99.90
18047;DHT22;9148;51.454;13.862;2023-04-28T05:52:12;7.90;99.90
18047;DHT22;9148;51.454;13.862;2023-04-28T05:54:37;8.10;99.90
18047;DHT22;9148;51.454;13.862;2023-04-28T05:57:03;8.20;99.90
18047;DHT22;9148;51.454;13.862;2023-04-28T05:59:29;8.30;99.90
18047;DHT22;9148;51.454;13.862;2023-04-28T06:01:55;8.40;99.90
18047;DHT22;9148;51.454;13.862;2023-04-28T06:04:21;8.50;99.90
18047;DHT22;9148;51.454;13.862;2023-04-28T06:06:47;8.50;99.90
18047;DHT22;9148;51.454;13.862;2023-04-28T06:09:12;8.60;99.90
18047;DHT22;9148;51.454;13.862;2023-04-28T06:11:38;8.70;99.90
18047;DHT22;9148;51.454;13.862;2023-04-28T06:14:04;8.70;99.90
18047;DHT22;9148;51.454;13.862;2023-04-28T06:16:30;8.80;99.90
18047;DHT22;9148;51.454;13.862;2023-04-28T06:18:55;8.40;99.90
18047;DHT22;9148;51.454;13.862;2023-04-28T06:21:21;9.00;99.90
18047;DHT22;9148;51.454;13.862;2023-04-28T06:23:49;9.10;99.80
18047;DHT22;9148;51.454;13.862;2023-04-28T06:26:15;9.20;99.40
18047;DHT22;9148;51.454;13.862;2023-04-28T06:28:41;9.40;98.60
18047;DHT22;9148;51.454;13.862;2023-04-28T06:31:07;9.50;97.70
18047;DHT22;9148;51.454;13.862;2023-04-28T06:33:33;9.60;97.00
18047;DHT22;9148;51.454;13.862;2023-04-28T06:35:58;9.80;95.80
18047;DHT22;9148;51.454;13.862;2023-04-28T06:38:24;10.00;94.50
18047;DHT22;9148;51.454;13.862;2023-04-28T06:40:50;10.10;94.00
18047;DHT22;9148;51.454;13.862;2023-04-28T06:43:16;10.30;93.30
18047;DHT22;9148;51.454;13.862;2023-04-28T06:45:41;10.40;92.20
18047;DHT22;9148;51.454;13.862;2023-04-28T06:48:07;10.60;92.10
18047;DHT22;9148;51.454;13.862;2023-04-28T06:50:33;10.70;90.50
18047;DHT22;9148;51.454;13.862;2023-04-28T06:52:58;10.80;90.20
18047;DHT22;9148;51.454;13.862;2023-04-28T06:55:25;11.00;87.80
18047;DHT22;9148;51.454;13.862;2023-04-28T06:57:51;10.70;87.20
18047;DHT22;9148;51.454;13.862;2023-04-28T07:00:17;10.70;86.40
18047;DHT22;9148;51.454;13.862;2023-04-28T07:02:43;10.80;88.10
18047;DHT22;9148;51.454;13.862;2023-04-28T07:05:08;10.80;87.80
18047;DHT22;9148;51.454;13.862;2023-04-28T07:07:35;10.90;87.60
18047;DHT22;9148;51.454;13.862;2023-04-28T07:10:03;10.90;85.80
18047;DHT22;9148;51.454;13.862;2023-04-28T07:12:41;11.00;86.30
18047;DHT22;9148;51.454;13.862;2023-04-28T07:15:07;11.10;86.10
18047;DHT22;9148;51.454;13.862;2023-04-28T07:17:33;11.30;85.30
18047;DHT22;9148;51.454;13.862;2023-04-28T07:19:58;11.50;85.10
18047;DHT22;9148;51.454;13.862;2023-04-28T07:22:24;11.70;84.90
18047;DHT22;9148;51.454;13.862;2023-04-28T07:24:50;11.90;81.70
18047;DHT22;9148;51.454;13.862;2023-04-28T07:27:16;12.10;81.10
18047;DHT22;9148;51.454;13.862;2023-04-28T07:29:42;12.30;81.00
18047;DHT22;9148;51.454;13.862;2023-04-28T07:32:08;12.50;80.10
18047;DHT22;9148;51.454;13.862;2023-04-28T07:34:35;12.90;76.90
18047;DHT22;9148;51.454;13.862;2023-04-28T07:37:02;13.10;75.60
18047;DHT22;9148;51.454;13.862;2023-04-28T07:39:30;13.30;75.80
18047;DHT22;9148;51.454;13.862;2023-04-28T07:41:56;13.60;74.40
18047;DHT22;9148;51.454;13.862;2023-04-28T07:44:23;13.90;72.30
18047;DHT22;9148;51.454;13.862;2023-04-28T07:46:49;14.20;72.70
18047;DHT22;9148;51.454;13.862;2023-04-28T07:49:14;14.60;70.60
18047;DHT22;9148;51.454;13.862;2023-04-28T07:51:40;14.90;68.30
18047;DHT22;9148;51.454;13.862;2023-04-28T07:54:06;15.10;66.60
18047;DHT22;9148;51.454;13.862;2023-04-28T07:56:31;15.30;64.70
18047;DHT22;9148;51.454;13.862;2023-04-28T07:58:57;15.50;62.60
18047;DHT22;9148;51.454;13.862;2023-04-28T08:01:23;15.70;61.50
18047;DHT22;9148;51.454;13.862;2023-04-28T08:03:48;15.80;59.80
18047;DHT22;9148;51.454;13.862;2023-04-28T08:06:14;15.90;59.10
18047;DHT22;9148;51.454;13.862;2023-04-28T08:08:40;15.90;58.80
18047;DHT22;9148;51.454;13.862;2023-04-28T08:11:06;15.90;57.10
18047;DHT22;9148;51.454;13.862;2023-04-28T08:13:32;15.90;57.80
18047;DHT22;9148;51.454;13.862;2023-04-28T08:15:58;15.90;58.20
18047;DHT22;9148;51.454;13.862;2023-04-28T08:18:27;16.10;58.40
18047;DHT22;9148;51.454;13.862;2023-04-28T08:20:53;16.20;57.10
18047;DHT22;9148;51.454;13.862;2023-04-28T08:23:19;16.40;57.40
18047;DHT22;9148;51.454;13.862;2023-04-28T08:25:45;16.50;57.60
18047;DHT22;9148;51.454;13.862;2023-04-28T08:28:12;16.80;56.50
18047;DHT22;9148;51.454;13.862;2023-04-28T08:30:37;17.00;56.10
18047;DHT22;9148;51.454;13.862;2023-04-28T08:33:03;17.20;55.10
18047;DHT22;9148;51.454;13.862;2023-04-28T08:35:29;17.40;53.90
18047;DHT22;9148;51.454;13.862;2023-04-28T08:37:55;17.50;54.50
18047;DHT22;9148;51.454;13.862;2023-04-28T08:40:21;17.70;53.50
18047;DHT22;9148;51.454;13.862;2023-04-28T08:42:48;17.70;53.90
18047;DHT22;9148;51.454;13.862;2023-04-28T08:45:14;18.00;53.60
18047;DHT22;9148;51.454;13.862;2023-04-28T08:47:40;18.20;54.60
18047;DHT22;9148;51.454;13.862;2023-04-28T08:50:11;18.50;52.70
18047;DHT22;9148;51.454;13.862;2023-04-28T08:52:38;18.70;52.50
18047;DHT22;9148;51.454;13.862;2023-04-28T08:57:57;19.00;51.30
18047;DHT22;9148;51.454;13.862;2023-04-28T09:00:22;19.20;51.20
18047;DHT22;9148;51.454;13.862;2023-04-28T09:02:49;19.40;50.20
18047;DHT22;9148;51.454;13.862;2023-04-28T09:05:14;19.40;49.70
18047;DHT22;9148;51.454;13.862;2023-04-28T09:07:40;19.50;50.50
18047;DHT22;9148;51.454;13.862;2023-04-28T09:10:22;19.60;50.40
18047;DHT22;9148;51.454;13.862;2023-04-28T09:12:53;19.80;49.80
18047;DHT22;9148;51.454;13.862;2023-04-28T09:15:28;20.00;49.00
18047;DHT22;9148;51.454;13.862;2023-04-28T09:17:54;20.10;48.30
18047;DHT22;9148;51.454;13.862;2023-04-28T09:20:24;20.10;48.20
18047;DHT22;9148;51.454;13.862;2023-04-28T09:22:52;20.30;48.80
18047;DHT22;9148;51.454;13.862;2023-04-28T09:25:27;20.50;49.00
18047;DHT22;9148;51.454;13.862;2023-04-28T09:27:53;20.80;47.30
18047;DHT22;9148;51.454;13.862;2023-04-28T09:30:37;20.90;46.90
18047;DHT22;9148;51.454;13.862;2023-04-28T09:33:04;21.00;46.20
18047;DHT22;9148;51.454;13.862;2023-04-28T09:35:41;21.10;46.80
18047;DHT22;9148;51.454;13.862;2023-04-28T09:38:09;21.50;46.30
18047;DHT22;9148;51.454;13.862;2023-04-28T09:40:55;21.10;45.60
18047;DHT22;9148;51.454;13.862;2023-04-28T09:43:28;21.00;46.20
18047;DHT22;9148;51.454;13.862;2023-04-28T09:45:56;21.00;47.10
18047;DHT22;9148;51.454;13.862;2023-04-28T09:48:28;21.10;47.40
18047;DHT22;9148;51.454;13.862;2023-04-28T09:51:03;21.00;47.30
18047;DHT22;9148;51.454;13.862;2023-04-28T09:53:31;21.80;46.30
18047;DHT22;9148;51.454;13.862;2023-04-28T09:55:58;22.10;45.70
18047;DHT22;9148;51.454;13.862;2023-04-28T09:58:27;22.00;43.30
18047;DHT22;9148;51.454;13.862;2023-04-28T10:00:58;21.80;43.50
18047;DHT22;9148;51.454;13.862;2023-04-28T10:03:26;21.60;43.60
18047;DHT22;9148;51.454;13.862;2023-04-28T10:05:53;21.40;43.60
18047;DHT22;9148;51.454;13.862;2023-04-28T10:08:23;21.10;42.90
18047;DHT22;9148;51.454;13.862;2023-04-28T10:10:50;20.80;43.10
18047;DHT22;9148;51.454;13.862;2023-04-28T10:13:19;20.40;42.80
18047;DHT22;9148;51.454;13.862;2023-04-28T10:15:45;20.20;43.70
18047;DHT22;9148;51.454;13.862;2023-04-28T10:18:12;19.90;44.10
18047;DHT22;9148;51.454;13.862;2023-04-28T10:20:48;19.90;45.10
18047;DHT22;9148;51.454;13.862;2023-04-28T10:23:58;19.90;44.80
18047;DHT22;9148;51.454;13.862;2023-04-28T10:29:32;19.80;44.40
18047;DHT22;9148;51.454;13.862;2023-04-28T10:32:19;19.80;45.00
18047;DHT22;9148;51.454;13.862;2023-04-28T10:34:46;19.70;44.70
18047;DHT22;9148;51.454;13.862;2023-04-28T10:37:12;19.60;45.00
18047;DHT22;9148;51.454;13.862;2023-04-28T10:42:54;19.50;45.30
18047;DHT22;9148;51.454;13.862;2023-04-28T10:58:47;19.00;46.10
18047;DHT22;9148;51.454;13.862;2023-04-28T11:06:19;18.80;46.50
18047;DHT22;9148;51.454;13.862;2023-04-28T11:09:00;18.80;46.80
18047;DHT22;9148;51.454;13.862;2023-04-28T11:11:34;18.90;46.70
18047;DHT22;9148;51.454;13.862;2023-04-28T11:16:59;19.00;46.80
18047;DHT22;9148;51.454;13.862;2023-04-28T11:19:28;19.10;46.90
18047;DHT22;9148;51.454;13.862;2023-04-28T11:21:55;19.10;46.90
18047;DHT22;9148;51.454;13.862;2023-04-28T11:24:23;19.10;47.20
18047;DHT22;9148;51.454;13.862;2023-04-28T11:26:53;19.10;47.50
18047;DHT22;9148;51.454;13.862;2023-04-28T11:29:36;19.10;47.70
18047;DHT22;9148;51.454;13.862;2023-04-28T11:32:05;19.00;48.10
18047;DHT22;9148;51.454;13.862;2023-04-28T11:34:32;19.00;48.50
18047;DHT22;9148;51.454;13.862;2023-04-28T11:36:59;18.80;49.10
18047;DHT22;9148;51.454;13.862;2023-04-28T11:39:30;18.70;50.40
18047;DHT22;9148;51.454;13.862;2023-04-28T11:41:58;18.60;51.50
18047;DHT22;9148;51.454;13.862;2023-04-28T11:44:29;18.30;52.60
18047;DHT22;9148;51.454;13.862;2023-04-28T11:46:57;18.10;53.30
18047;DHT22;9148;51.454;13.862;2023-04-28T11:49:26;17.90;54.20
18047;DHT22;9148;51.454;13.862;2023-04-28T11:51:53;17.70;54.80
18047;DHT22;9148;51.454;13.862;2023-04-28T11:54:27;17.60;55.40
18047;DHT22;9148;51.454;13.862;2023-04-28T11:56:54;17.50;56.00
18047;DHT22;9148;51.454;13.862;2023-04-28T11:59:27;17.40;56.60
18047;DHT22;9148;51.454;13.862;2023-04-28T12:02:00;17.40;57.20
18047;DHT22;9148;51.454;13.862;2023-04-28T12:04:38;17.30;57.60
18047;DHT22;9148;51.454;13.862;2023-04-28T12:07:18;17.30;58.50
18047;DHT22;9148;51.454;13.862;2023-04-28T12:10:11;17.20;59.40
18047;DHT22;9148;51.454;13.862;2023-04-28T12:12:37;17.10;60.40
18047;DHT22;9148;51.454;13.862;2023-04-28T12:15:19;17.10;62.60
18047;DHT22;9148;51.454;13.862;2023-04-28T12:17:45;17.00;64.20
18047;DHT22;9148;51.454;13.862;2023-04-28T12:22:59;16.50;67.00
18047;DHT22;9148;51.454;13.862;2023-04-28T12:25:25;16.10;68.20
18047;DHT22;9148;51.454;13.862;2023-04-28T12:30:33;15.80;70.20
18047;DHT22;9148;51.454;13.862;2023-04-28T12:33:00;15.70;70.60
18047;DHT22;9148;51.454;13.862;2023-04-28T12:35:27;15.70;70.80
18047;DHT22;9148;51.454;13.862;2023-04-28T12:37:54;15.60;71.50
18047;DHT22;9148;51.454;13.862;2023-04-28T12:40:21;15.60;72.20
18047;DHT22;9148;51.454;13.862;2023-04-28T12:42:47;15.60;72.50
18047;DHT22;9148;51.454;13.862;2023-04-28T12:45:14;15.60;73.10
18047;DHT22;9148;51.454;13.862;2023-04-28T12:47:40;15.50;74.00
18047;DHT22;9148;51.454;13.862;2023-04-28T12:50:06;15.50;75.00
18047;DHT22;9148;51.454;13.862;2023-04-28T12:52:32;15.50;75.50
18047;DHT22;9148;51.454;13.862;2023-04-28T12:55:00;15.50;75.90
18047;DHT22;9148;51.454;13.862;2023-04-28T12:57:29;15.50;76.20
18047;DHT22;9148;51.454;13.862;2023-04-28T12:59:54;15.60;76.50
18047;DHT22;9148;51.454;13.862;2023-04-28T13:02:24;15.70;76.70
18047;DHT22;9148;51.454;13.862;2023-04-28T13:04:50;15.70;76.10
18047;DHT22;9148;51.454;13.862;2023-04-28T13:07:17;15.80;75.30
18047;DHT22;9148;51.454;13.862;2023-04-28T13:09:42;15.80;74.80
18047;DHT22;9148;51.454;13.862;2023-04-28T13:12:08;15.90;74.60
18047;DHT22;9148;51.454;13.862;2023-04-28T13:14:36;16.00;74.20
18047;DHT22;9148;51.454;13.862;2023-04-28T13:17:01;16.10;73.90
18047;DHT22;9148;51.454;13.862;2023-04-28T13:19:28;16.20;73.60
18047;DHT22;9148;51.454;13.862;2023-04-28T13:21:55;16.30;72.40
18047;DHT22;9148;51.454;13.862;2023-04-28T13:24:21;16.30;72.20
18047;DHT22;9148;51.454;13.862;2023-04-28T13:26:46;16.30;71.50
18047;DHT22;9148;51.454;13.862;2023-04-28T13:29:12;16.30;71.50
18047;DHT22;9148;51.454;13.862;2023-04-28T13:31:38;16.40;71.60
18047;DHT22;9148;51.454;13.862;2023-04-28T13:34:05;16.40;71.30
18047;DHT22;9148;51.454;13.862;2023-04-28T13:36:32;16.50;71.10
18047;DHT22;9148;51.454;13.862;2023-04-28T13:38:58;16.60;70.40
18047;DHT22;9148;51.454;13.862;2023-04-28T13:41:24;16.60;70.20
18047;DHT22;9148;51.454;13.862;2023-04-28T13:43:50;16.60;69.90
18047;DHT22;9148;51.454;13.862;2023-04-28T13:46:16;16.70;67.60
18047;DHT22;9148;51.454;13.862;2023-04-28T13:48:42;16.70;66.40
18047;DHT22;9148;51.454;13.862;2023-04-28T13:51:08;16.80;66.20
18047;DHT22;9148;51.454;13.862;2023-04-28T13:53:34;16.80;65.90
18047;DHT22;9148;51.454;13.862;2023-04-28T13:56:03;16.90;65.60
18047;DHT22;9148;51.454;13.862;2023-04-28T13:58:29;16.90;65.50
18047;DHT22;9148;51.454;13.862;2023-04-28T14:00:55;17.00;65.60
18047;DHT22;9148;51.454;13.862;2023-04-28T14:03:22;17.00;65.60
18047;DHT22;9148;51.454;13.862;2023-04-28T14:05:53;17.10;65.90
18047;DHT22;9148;51.454;13.862;2023-04-28T14:08:20;17.10;65.90
18047;DHT22;9148;51.454;13.862;2023-04-28T14:10:47;17.10;65.90
18047;DHT22;9148;51.454;13.862;2023-04-28T14:13:13;17.10;65.60
18047;DHT22;9148;51.454;13.862;2023-04-28T14:15:39;17.10;65.50
18047;DHT22;9148;51.454;13.862;2023-04-28T14:18:06;17.00;65.30
18047;DHT22;9148;51.454;13.862;2023-04-28T14:20:33;16.80;66.00
18047;DHT22;9148;51.454;13.862;2023-04-28T14:22:59;16.60;66.00
18047;DHT22;9148;51.454;13.862;2023-04-28T14:25:44;16.40;66.40
18047;DHT22;9148;51.454;13.862;2023-04-28T14:28:09;16.30;67.80
18047;DHT22;9148;51.454;13.862;2023-04-28T14:30:36;16.10;68.10
18047;DHT22;9148;51.454;13.862;2023-04-28T14:33:01;16.10;68.20
18047;DHT22;9148;51.454;13.862;2023-04-28T14:35:27;16.00;68.40
18047;DHT22;9148;51.454;13.862;2023-04-28T14:37:54;16.00;69.00
18047;DHT22;9148;51.454;13.862;2023-04-28T14:40:21;15.90;68.80
18047;DHT22;9148;51.454;13.862;2023-04-28T14:42:46;15.80;69.10
18047;DHT22;9148;51.454;13.862;2023-04-28T14:45:12;15.80;69.50
18047;DHT22;9148;51.454;13.862;2023-04-28T14:47:38;15.80;69.60
18047;DHT22;9148;51.454;13.862;2023-04-28T14:50:10;15.70;70.00
18047;DHT22;9148;51.454;13.862;2023-04-28T14:52:36;15.70;69.90
18047;DHT22;9148;51.454;13.862;2023-04-28T14:55:02;15.70;70.20
18047;DHT22;9148;51.454;13.862;2023-04-28T14:57:29;15.60;70.00
18047;DHT22;9148;51.454;13.862;2023-04-28T14:59:55;15.50;70.60
18047;DHT22;9148;51.454;13.862;2023-04-28T15:02:21;15.50;70.90
18047;DHT22;9148;51.454;13.862;2023-04-28T15:04:52;15.50;71.20
18047;DHT22;9148;51.454;13.862;2023-04-28T15:07:18;15.40;71.00
18047;DHT22;9148;51.454;13.862;2023-04-28T15:09:45;15.40;71.10
18047;DHT22;9148;51.454;13.862;2023-04-28T15:12:11;15.40;71.30
18047;DHT22;9148;51.454;13.862;2023-04-28T15:14:37;15.40;71.30
18047;DHT22;9148;51.454;13.862;2023-04-28T15:17:02;15.40;71.20
18047;DHT22;9148;51.454;13.862;2023-04-28T15:19:28;15.30;71.00
18047;DHT22;9148;51.454;13.862;2023-04-28T15:21:55;15.30;70.80
18047;DHT22;9148;51.454;13.862;2023-04-28T15:24:21;15.30;71.00
18047;DHT22;9148;51.454;13.862;2023-04-28T15:26:47;15.30;71.00
18047;DHT22;9148;51.454;13.862;2023-04-28T15:29:13;15.30;71.10
18047;DHT22;9148;51.454;13.862;2023-04-28T15:31:38;15.30;71.40
18047;DHT22;9148;51.454;13.862;2023-04-28T15:34:05;15.30;71.50
18047;DHT22;9148;51.454;13.862;2023-04-28T15:36:31;15.30;71.70
18047;DHT22;9148;51.454;13.862;2023-04-28T15:39:01;15.30;71.70
18047;DHT22;9148;51.454;13.862;2023-04-28T15:41:27;15.40;71.90
18047;DHT22;9148;51.454;13.862;2023-04-28T15:43:53;15.30;71.30
18047;DHT22;9148;51.454;13.862;2023-04-28T15:46:20;15.30;70.80
18047;DHT22;9148;51.454;13.862;2023-04-28T15:48:46;15.30;71.10
18047;DHT22;9148;51.454;13.862;2023-04-28T15:51:12;15.20;71.60
18047;DHT22;9148;51.454;13.862;2023-04-28T15:53:38;15.30;71.90
18047;DHT22;9148;51.454;13.862;2023-04-28T15:56:04;15.20;72.20
18047;DHT22;9148;51.454;13.862;2023-04-28T15:58:30;15.20;72.20
18047;DHT22;9148;51.454;13.862;2023-04-28T16:00:56;15.20;72.30
18047;DHT22;9148;51.454;13.862;2023-04-28T16:03:29;15.10;72.30
18047;DHT22;9148;51.454;13.862;2023-04-28T16:05:55;15.20;72.70
18047;DHT22;9148;51.454;13.862;2023-04-28T16:08:21;15.10;72.20
18047;DHT22;9148;51.454;13.862;2023-04-28T16:10:50;15.10;72.60
18047;DHT22;9148;51.454;13.862;2023-04-28T16:13:17;15.10;72.70